Time;durP1;ratioP1;P1;durP2;ratioP2;P2;SDS_P1;SDS_P2;PMS_P1;PMS_P2;Temp;Humidity;BMP_temperature;BMP_pressure;BME280_temperature;BME280_humidity;BME280_pressure;Samples;Min_cycle;Max_cycle;Signal;HPM_P1;HPM_P2
2023/03/05 00:01:44;;;;;;;15.30;5.90;;;;;;;-5.61;67.06;100084.34;108709;1253;36995;-80
2023/03/05 00:04:18;;;;;;;12.50;6.20;;;;;;;-5.62;66.84;100082.28;108697;1276;37129;-78
2023/03/05 00:06:54;;;;;;;12.80;5.90;;;;;;;-5.65;66.72;100085.09;108716;1256;37587;-78
2023/03/05 00:09:28;;;;;;;11.50;5.30;;;;;;;-5.70;67.01;100086.01;108763;1266;36979;-74
2023/03/05 00:12:02;;;;;;;17.00;6.50;;;;;;;-5.76;67.11;100075.52;108747;1268;37084;-75
2023/03/05 00:14:39;;;;;;;13.90;6.40;;;;;;;-5.80;67.07;100077.61;108753;1276;37170;-78
2023/03/05 00:17:13;;;;;;;13.60;6.60;;;;;;;-5.85;67.29;100075.63;108561;1259;37380;-80
2023/03/05 00:19:47;;;;;;;15.20;5.70;;;;;;;-5.89;67.66;100075.38;108641;1253;175721;-75
2023/03/05 00:22:22;;;;;;;13.90;5.80;;;;;;;-5.92;67.65;100073.64;108769;1253;38128;-76
2023/03/05 00:24:56;;;;;;;14.30;6.20;;;;;;;-5.92;67.80;100069.05;108711;1264;35899;-78
2023/03/05 00:27:31;;;;;;;12.80;5.50;;;;;;;-5.89;68.02;100069.10;108727;1256;37451;-77
2023/03/05 00:30:06;;;;;;;15.40;6.80;;;;;;;-5.85;68.08;100064.27;108705;1266;38816;-78
2023/03/05 00:32:41;;;;;;;15.10;6.60;;;;;;;-5.82;68.17;100061.45;108714;1254;36959;-77
2023/03/05 00:35:15;;;;;;;14.70;6.70;;;;;;;-5.80;68.27;100057.92;108648;1257;37569;-78
2023/03/05 00:37:50;;;;;;;13.80;6.70;;;;;;;-5.79;68.51;100058.29;108685;1276;37120;-78
2023/03/05 00:40:24;;;;;;;14.40;6.10;;;;;;;-5.78;68.57;100052.55;108701;1276;37028;-78
2023/03/05 00:42:59;;;;;;;18.60;7.00;;;;;;;-5.78;68.43;100052.20;108742;1256;37096;-77
2023/03/05 00:45:33;;;;;;;15.40;8.00;;;;;;;-5.80;68.60;100047.21;108575;1262;37565;-78
2023/03/05 00:48:09;;;;;;;19.40;9.40;;;;;;;-5.82;68.62;100045.98;108544;1259;37152;-79
2023/03/05 00:50:44;;;;;;;18.80;9.80;;;;;;;-5.86;68.82;100041.65;108682;1268;37149;-76
2023/03/05 00:53:18;;;;;;;22.50;9.50;;;;;;;-5.88;68.99;100040.42;108609;1259;37082;-76
2023/03/05 00:55:52;;;;;;;17.30;8.60;;;;;;;-5.89;69.20;100037.85;108771;1263;36618;-79
2023/03/05 00:58:27;;;;;;;19.60;9.60;;;;;;;-5.88;69.18;100036.16;108137;1256;635273;-79
2023/03/05 01:01:03;;;;;;;18.60;9.90;;;;;;;-5.84;69.51;100033.38;108747;1255;36962;-78
2023/03/05 01:03:40;;;;;;;24.10;9.60;;;;;;;-5.79;69.73;100031.96;108678;1265;38252;-77
2023/03/05 01:06:16;;;;;;;22.90;9.90;;;;;;;-5.73;69.94;100024.44;108770;1266;37131;-76
2023/03/05 01:08:58;;;;;;;25.40;10.70;;;;;;;-5.70;70.03;100021.45;108743;1253;37123;-76
2023/03/05 01:11:32;;;;;;;31.50;13.00;;;;;;;-5.69;69.99;100016.19;108732;1253;37089;-74
2023/03/05 01:14:06;;;;;;;33.00;13.80;;;;;;;-5.70;70.09;100013.12;108750;1256;37947;-78
2023/03/05 01:16:41;;;;;;;32.80;13.10;;;;;;;-5.73;70.19;100010.34;108713;1276;37204;-79
2023/03/05 01:19:16;;;;;;;22.60;10.30;;;;;;;-5.76;70.20;100011.63;108746;1266;37212;-78
2023/03/05 01:21:54;;;;;;;28.30;12.80;;;;;;;-5.78;70.43;100008.02;108551;1267;37616;-79
2023/03/05 01:24:28;;;;;;;26.70;10.10;;;;;;;-5.80;70.66;100007.80;108774;1276;36062;-76
2023/03/05 01:27:04;;;;;;;24.60;12.20;;;;;;;-5.80;70.60;100004.42;108567;1259;37162;-74
2023/03/05 01:29:39;;;;;;;27.60;12.20;;;;;;;-5.80;70.82;100005.61;108558;1276;36987;-76
2023/03/05 01:32:14;;;;;;;26.70;11.50;;;;;;;-5.77;71.00;100003.80;108741;1272;36955;-76
2023/03/05 01:34:49;;;;;;;26.60;10.90;;;;;;;-5.73;71.17;99998.95;108761;1256;37189;-80
2023/03/05 01:37:23;;;;;;;23.10;10.40;;;;;;;-5.70;71.30;99997.48;108692;1256;36174;-80
2023/03/05 01:39:57;;;;;;;25.40;10.70;;;;;;;-5.67;71.39;99997.20;108705;1276;37083;-77
2023/03/05 01:42:31;;;;;;;23.80;10.00;;;;;;;-5.67;71.43;99996.54;108687;1256;37912;-78
2023/03/05 01:45:10;;;;;;;25.60;10.80;;;;;;;-5.67;71.50;99991.92;108540;1276;37070;-77
2023/03/05 01:47:44;;;;;;;23.40;10.50;;;;;;;-5.69;71.57;99991.21;108698;1258;37174;-77
2023/03/05 01:50:21;;;;;;;30.10;12.10;;;;;;;-5.72;71.63;99990.65;108745;1266;37314;-77
2023/03/05 01:52:58;;;;;;;26.50;11.70;;;;;;;-5.75;71.72;99988.03;108765;1276;37014;-76
2023/03/05 01:55:33;;;;;;;24.00;10.20;;;;;;;-5.77;71.93;99984.42;108752;1256;37013;-80
2023/03/05 01:58:08;;;;;;;23.90;11.30;;;;;;;-5.76;72.19;99981.06;108745;1256;37465;-80
2023/03/05 02:00:45;;;;;;;26.60;9.90;;;;;;;-5.71;72.39;99975.04;108591;1259;39069;-75
2023/03/05 02:03:19;;;;;;;22.70;10.00;;;;;;;-5.65;72.49;99979.59;108536;1260;37267;-76
2023/03/05 02:05:54;;;;;;;24.60;10.40;;;;;;;-5.61;72.67;99976.77;108723;1263;36504;-78
2023/03/05 02:08:28;;;;;;;22.70;11.30;;;;;;;-5.59;72.67;99976.14;108762;1253;38256;-78
2023/03/05 02:11:02;;;;;;;25.70;11.30;;;;;;;-5.59;72.89;99974.10;108704;1267;37132;-79
2023/03/05 02:13:39;;;;;;;24.60;10.30;;;;;;;-5.58;72.98;99972.77;108675;1276;38262;-79
2023/03/05 02:16:14;;;;;;;23.90;11.30;;;;;;;-5.60;73.15;99970.34;108788;1253;37062;-76
2023/03/05 02:18:49;;;;;;;26.10;10.50;;;;;;;-5.62;73.04;99969.96;108799;1256;36994;-76
2023/03/05 02:21:38;;;;;;;22.90;9.40;;;;;;;-5.63;73.26;99968.58;108620;1267;36149;-78
2023/03/05 02:24:14;;;;;;;22.20;10.10;;;;;;;-5.60;73.59;99967.30;108795;1257;37363;-76
2023/03/05 02:26:49;;;;;;;27.80;11.90;;;;;;;-5.54;73.71;99964.17;108758;1276;37056;-75
2023/03/05 02:29:23;;;;;;;26.30;11.80;;;;;;;-5.48;73.81;99960.22;108746;1272;36988;-78
2023/03/05 02:31:57;;;;;;;22.60;11.50;;;;;;;-5.43;73.74;99961.83;108719;1276;37026;-78
2023/03/05 02:34:31;;;;;;;25.50;11.80;;;;;;;-5.42;73.78;99957.27;108758;1256;37335;-78
2023/03/05 02:37:08;;;;;;;24.60;11.00;;;;;;;-5.44;73.84;99951.30;108815;1276;37018;-79
2023/03/05 02:39:42;;;;;;;23.90;12.00;;;;;;;-5.45;73.98;99950.92;108818;1272;37312;-79
2023/03/05 02:42:17;;;;;;;29.80;13.10;;;;;;;-5.47;74.05;99952.09;108825;1276;37024;-79
2023/03/05 02:44:51;;;;;;;28.50;12.60;;;;;;;-5.49;73.96;99948.30;108653;1263;37267;-79
2023/03/05 02:47:25;;;;;;;26.80;12.20;;;;;;;-5.52;73.99;99946.54;108542;1269;175705;-79
2023/03/05 02:49:59;;;;;;;23.40;10.50;;;;;;;-5.53;73.97;99942.11;108825;1276;36834;-78
2023/03/05 02:52:34;;;;;;;23.30;10.70;;;;;;;-5.52;74.10;99946.89;108680;1270;37361;-78
2023/03/05 02:55:10;;;;;;;28.10;12.20;;;;;;;-5.50;74.33;99938.27;108735;1273;36998;-78
2023/03/05 02:57:44;;;;;;;24.40;10.10;;;;;;;-5.47;74.44;99937.97;108703;1276;37341;-78
2023/03/05 03:00:20;;;;;;;27.90;12.60;;;;;;;-5.47;74.48;99936.80;108550;1256;36254;-76
2023/03/05 03:02:54;;;;;;;24.10;11.00;;;;;;;-5.47;74.48;99935.27;108689;1265;36139;-76
2023/03/05 03:05:29;;;;;;;24.90;12.00;;;;;;;-5.49;74.52;99933.19;108702;1276;37443;-77
2023/03/05 03:08:04;;;;;;;26.10;11.80;;;;;;;-5.51;74.40;99933.46;108505;1266;37138;-77
2023/03/05 03:10:38;;;;;;;21.50;9.80;;;;;;;-5.52;74.65;99935.34;108530;1267;175713;-80
2023/03/05 03:13:13;;;;;;;21.80;11.20;;;;;;;-5.49;74.93;99931.82;108883;1257;36562;-79
2023/03/05 03:15:47;;;;;;;22.90;10.40;;;;;;;-5.42;74.97;99932.30;108829;1276;37032;-79
2023/03/05 03:18:23;;;;;;;22.40;10.20;;;;;;;-5.36;75.19;99935.98;108608;1258;37134;-78
2023/03/05 03:21:00;;;;;;;21.70;9.80;;;;;;;-5.31;75.31;99934.55;108761;1271;36964;-77
2023/03/05 03:23:34;;;;;;;20.90;9.40;;;;;;;-5.26;75.42;99932.42;108724;1265;37067;-77
2023/03/05 03:26:09;;;;;;;23.20;10.40;;;;;;;-5.24;75.24;99928.89;108732;1276;37102;-77
2023/03/05 03:28:44;;;;;;;21.10;9.80;;;;;;;-5.25;75.37;99930.76;108664;1256;37038;-77
2023/03/05 03:31:18;;;;;;;19.10;9.70;;;;;;;-5.25;75.42;99929.56;108714;1276;37207;-77
2023/03/05 03:33:53;;;;;;;21.70;9.20;;;;;;;-5.23;75.54;99927.38;108651;1259;36619;-77
2023/03/05 03:36:31;;;;;;;20.50;8.30;;;;;;;-5.22;75.41;99923.85;108534;1276;36842;-78
2023/03/05 03:39:08;;;;;;;18.60;9.30;;;;;;;-5.17;75.32;99924.26;108725;1257;37045;-78
2023/03/05 03:41:45;;;;;;;17.40;8.70;;;;;;;-5.12;75.42;99916.33;108572;1276;173309;-77
2023/03/05 03:44:19;;;;;;;18.60;8.60;;;;;;;-5.08;75.38;99912.34;108564;1269;36704;-78
2023/03/05 03:46:54;;;;;;;19.60;8.50;;;;;;;-5.06;75.35;99906.25;108858;1266;38001;-79
2023/03/05 03:49:29;;;;;;;18.50;8.50;;;;;;;-5.06;75.28;99905.75;108840;1276;36996;-74
2023/03/05 03:52:03;;;;;;;18.80;8.10;;;;;;;-5.07;75.18;99901.48;108501;1266;38395;-75
2023/03/05 03:54:37;;;;;;;19.20;8.10;;;;;;;-5.09;75.01;99897.52;108705;1276;36442;-75
2023/03/05 03:57:11;;;;;;;17.90;8.40;;;;;;;-5.12;75.13;99899.00;108716;1276;38373;-76
2023/03/05 03:59:45;;;;;;;16.80;8.30;;;;;;;-5.15;74.91;99896.06;108803;1257;36978;-78
2023/03/05 04:02:20;;;;;;;17.70;8.10;;;;;;;-5.16;74.99;99895.20;108633;1259;37160;-79
2023/03/05 04:04:54;;;;;;;18.40;8.50;;;;;;;-5.13;75.19;99895.92;108840;1253;36976;-77
2023/03/05 04:07:28;;;;;;;19.10;9.30;;;;;;;-5.08;75.18;99894.48;108491;1271;37336;-77
2023/03/05 04:10:02;;;;;;;19.00;8.30;;;;;;;-5.04;75.34;99891.15;108831;1256;36632;-79
2023/03/05 04:12:37;;;;;;;17.40;7.70;;;;;;;-5.02;75.33;99887.12;108862;1264;37069;-79
2023/03/05 04:15:13;;;;;;;18.10;8.60;;;;;;;-5.01;75.31;99881.69;108607;1256;38192;-77
2023/03/05 04:17:47;;;;;;;19.20;8.90;;;;;;;-5.02;75.18;99874.52;108746;1276;37359;-77
2023/03/05 04:20:22;;;;;;;20.40;9.10;;;;;;;-5.02;75.24;99874.88;108522;1263;36752;-76
2023/03/05 04:22:56;;;;;;;17.20;7.90;;;;;;;-5.02;75.31;99873.67;108688;1268;37125;-76
2023/03/05 04:25:30;;;;;;;20.50;8.50;;;;;;;-5.00;75.18;99872.69;108797;1266;37081;-78
2023/03/05 04:28:04;;;;;;;16.80;7.60;;;;;;;-4.96;75.25;99869.36;108717;1268;36886;-77
2023/03/05 04:30:39;;;;;;;17.60;7.90;;;;;;;-4.89;75.31;99867.24;108708;1253;37009;-77
2023/03/05 04:33:13;;;;;;;19.90;8.90;;;;;;;-4.85;75.38;99862.05;108683;1276;37085;-77
2023/03/05 04:35:48;;;;;;;17.20;8.00;;;;;;;-4.82;75.35;99861.27;108637;1253;188356;-79
2023/03/05 04:38:22;;;;;;;19.70;8.60;;;;;;;-4.79;75.31;99861.61;108539;1256;37365;-76
2023/03/05 04:40:57;;;;;;;17.70;8.50;;;;;;;-4.78;75.29;99854.32;108729;1272;37043;-76
2023/03/05 04:43:31;;;;;;;21.60;8.50;;;;;;;-4.78;75.17;99858.06;108686;1256;37120;-77
2023/03/05 04:46:06;;;;;;;19.60;8.70;;;;;;;-4.78;75.25;99853.63;108728;1276;37075;-78
2023/03/05 04:48:41;;;;;;;15.60;7.30;;;;;;;-4.77;75.22;99851.95;108717;1276;37132;-77
2023/03/05 04:51:15;;;;;;;16.50;7.10;;;;;;;-4.74;75.13;99850.11;108656;1262;37175;-78
2023/03/05 04:53:49;;;;;;;18.00;8.30;;;;;;;-4.70;75.20;99847.80;108905;1276;36584;-78
2023/03/05 04:56:24;;;;;;;17.00;8.30;;;;;;;-4.63;75.16;99844.33;108546;1276;35931;-76
2023/03/05 04:58:59;;;;;;;16.80;6.90;;;;;;;-4.59;75.24;99839.11;108701;1276;36988;-77
2023/03/05 05:01:34;;;;;;;17.40;7.80;;;;;;;-4.56;75.12;99835.58;108526;1259;37091;-77
2023/03/05 05:04:08;;;;;;;17.60;7.10;;;;;;;-4.56;74.95;99833.89;108729;1276;38714;-78
2023/03/05 05:06:43;;;;;;;17.40;7.60;;;;;;;-4.58;74.82;99828.75;108932;1276;36255;-78
2023/03/05 05:09:17;;;;;;;15.50;7.10;;;;;;;-4.61;74.74;99828.88;108896;1276;37302;-77
2023/03/05 05:11:52;;;;;;;14.50;7.10;;;;;;;-4.64;74.74;99826.12;108539;1259;37021;-77
2023/03/05 05:14:29;;;;;;;17.40;6.90;;;;;;;-4.66;74.76;99822.84;108752;1256;37115;-77
2023/03/05 05:17:05;;;;;;;18.50;6.90;;;;;;;-4.66;74.69;99821.48;108370;1276;175656;-76
2023/03/05 05:19:39;;;;;;;17.30;7.30;;;;;;;-4.64;74.68;99823.20;108749;1255;37996;-77
2023/03/05 05:22:14;;;;;;;19.10;7.70;;;;;;;-4.60;74.69;99819.52;108705;1265;37231;-77
2023/03/05 05:24:48;;;;;;;15.70;7.20;;;;;;;-4.57;74.72;99816.52;108723;1272;36926;-75
2023/03/05 05:27:23;;;;;;;16.40;7.60;;;;;;;-4.56;74.67;99816.36;108538;1259;36442;-75
2023/03/05 05:29:58;;;;;;;16.00;7.40;;;;;;;-4.55;74.56;99814.84;108577;1259;36652;-76
2023/03/05 05:32:33;;;;;;;16.60;7.30;;;;;;;-4.54;74.49;99818.94;108580;1262;36920;-75
2023/03/05 05:35:11;;;;;;;15.70;7.00;;;;;;;-4.54;74.49;99820.64;108447;1269;38161;-77
2023/03/05 05:37:46;;;;;;;17.50;7.50;;;;;;;-4.54;74.46;99821.30;108483;1269;38962;-76
2023/03/05 05:40:20;;;;;;;14.40;6.50;;;;;;;-4.55;74.47;99825.56;108459;1266;37444;-77
2023/03/05 05:42:56;;;;;;;15.80;6.30;;;;;;;-4.52;74.52;99825.61;108433;1261;37744;-77
2023/03/05 05:45:30;;;;;;;16.40;7.30;;;;;;;-4.46;74.62;99831.13;108470;1275;37207;-77
2023/03/05 05:48:05;;;;;;;15.20;7.10;;;;;;;-4.42;74.68;99828.81;108456;1254;36975;-75
2023/03/05 05:50:41;;;;;;;15.50;6.80;;;;;;;-4.39;74.56;99830.03;108492;1269;37063;-75
2023/03/05 05:53:16;;;;;;;13.60;6.80;;;;;;;-4.35;74.48;99830.42;108465;1278;36630;-77
2023/03/05 05:55:50;;;;;;;12.10;6.20;;;;;;;-4.31;74.47;99830.48;108485;1265;36596;-76
2023/03/05 05:58:25;;;;;;;12.10;6.20;;;;;;;-4.25;74.61;99824.94;108468;1260;37413;-77
2023/03/05 06:00:59;;;;;;;12.20;6.40;;;;;;;-4.19;74.62;99827.41;108361;1277;175592;-79
2023/03/05 06:03:34;;;;;;;16.40;7.00;;;;;;;-4.05;74.74;99822.12;108472;1278;36102;-77
2023/03/05 06:06:11;;;;;;;14.10;6.30;;;;;;;-3.41;75.81;99816.48;108527;1278;38306;-80
2023/03/05 06:08:46;;;;;;;13.30;6.70;;;;;;;-2.29;78.34;99810.46;108650;1260;37200;-78
2023/03/05 06:11:20;;;;;;;11.90;6.40;;;;;;;-1.02;77.20;99805.80;108475;1271;37543;-76
2023/03/05 06:13:55;;;;;;;10.80;5.50;;;;;;;0.03;74.28;99800.08;108486;1277;37497;-78
2023/03/05 06:16:30;;;;;;;9.70;5.90;;;;;;;0.81;71.48;99789.48;108402;1262;37059;-76
2023/03/05 06:19:04;;;;;;;13.00;6.50;;;;;;;1.24;70.19;99783.45;108531;1267;36943;-78
2023/03/05 06:21:38;;;;;;;9.40;5.80;;;;;;;1.28;67.78;99776.36;108492;1259;37158;-76
2023/03/05 06:24:12;;;;;;;13.40;6.40;;;;;;;1.40;66.16;99767.84;108461;1278;37081;-77
2023/03/05 06:26:47;;;;;;;14.10;7.70;;;;;;;1.50;65.27;99767.71;108458;1278;37089;-76
2023/03/05 06:29:22;;;;;;;10.60;5.70;;;;;;;1.49;63.82;99766.52;108501;1259;36658;-78
2023/03/05 06:31:56;;;;;;;11.10;6.10;;;;;;;1.48;63.71;99755.02;108740;1259;38308;-79
2023/03/05 06:34:30;;;;;;;12.10;5.70;;;;;;;1.52;63.46;99753.77;108759;1265;36987;-76
2023/03/05 06:37:04;;;;;;;11.10;6.40;;;;;;;1.58;62.87;99754.23;108730;1264;38753;-77
2023/03/05 06:39:38;;;;;;;13.20;6.60;;;;;;;1.45;62.31;99755.23;108721;1276;36977;-77
2023/03/05 06:42:13;;;;;;;10.10;5.90;;;;;;;1.31;61.63;99760.18;108709;1276;37057;-77
2023/03/05 06:44:48;;;;;;;10.30;5.80;;;;;;;1.20;61.79;99760.47;108805;1276;36563;-80
2023/03/05 06:47:22;;;;;;;14.30;6.00;;;;;;;1.12;61.55;99756.95;108895;1272;36978;-78
2023/03/05 06:49:56;;;;;;;14.40;6.50;;;;;;;1.04;60.87;99746.02;108758;1276;38596;-77
2023/03/05 06:52:31;;;;;;;10.80;5.70;;;;;;;0.91;60.68;99735.83;108731;1276;37129;-76
2023/03/05 06:55:06;;;;;;;14.20;6.80;;;;;;;0.81;61.10;99734.20;108730;1257;37268;-74
2023/03/05 06:57:40;;;;;;;15.60;6.80;;;;;;;0.76;61.66;99733.05;108711;1276;37307;-76
2023/03/05 07:00:17;;;;;;;14.70;6.10;;;;;;;0.73;62.16;99728.27;108737;1266;37053;-76
2023/03/05 07:02:53;;;;;;;13.00;6.20;;;;;;;0.72;61.63;99721.41;108745;1266;36410;-77
2023/03/05 07:05:28;;;;;;;11.40;5.20;;;;;;;0.72;61.83;99718.83;108724;1264;37103;-76
2023/03/05 07:08:03;;;;;;;11.90;5.60;;;;;;;0.74;61.65;99720.19;108720;1271;37052;-78
2023/03/05 07:10:41;;;;;;;10.10;5.10;;;;;;;0.77;62.02;99733.38;108757;1272;36950;-76
2023/03/05 07:13:15;;;;;;;10.80;6.10;;;;;;;0.84;62.68;99732.64;108746;1253;37109;-76
2023/03/05 07:15:49;;;;;;;11.30;6.10;;;;;;;0.95;62.21;99737.52;108713;1253;37100;-77
2023/03/05 07:18:23;;;;;;;12.20;6.20;;;;;;;1.05;62.42;99739.31;108589;1256;175248;-77
2023/03/05 07:21:01;;;;;;;9.20;5.60;;;;;;;1.16;62.21;99739.02;108725;1276;37052;-77
2023/03/05 07:23:36;;;;;;;10.70;5.90;;;;;;;1.23;62.00;99737.59;108480;1262;37087;-76
2023/03/05 07:26:10;;;;;;;12.40;5.70;;;;;;;1.34;62.35;99738.16;108629;1265;36646;-77
2023/03/05 07:28:45;;;;;;;14.00;6.60;;;;;;;1.51;61.59;99735.73;108690;1276;37135;-76
2023/03/05 07:31:21;;;;;;;11.00;5.70;;;;;;;1.63;61.35;99730.11;108674;1259;36980;-76
2023/03/05 07:33:57;;;;;;;12.10;5.90;;;;;;;1.70;61.20;99727.95;108689;1276;37657;-76
2023/03/05 07:36:33;;;;;;;13.10;6.60;;;;;;;1.76;61.16;99724.77;108698;1276;36469;-75
2023/03/05 07:39:07;;;;;;;10.90;6.40;;;;;;;1.78;60.80;99725.80;108683;1276;37120;-76
2023/03/05 07:41:42;;;;;;;12.50;6.00;;;;;;;1.82;60.86;99727.80;108627;1263;38108;-76
2023/03/05 07:44:17;;;;;;;11.80;6.00;;;;;;;1.90;61.51;99724.77;108461;1276;37472;-75
2023/03/05 07:46:52;;;;;;;12.60;6.40;;;;;;;2.00;61.03;99728.42;108719;1264;38484;-75
2023/03/05 07:49:26;;;;;;;13.80;6.60;;;;;;;2.02;60.68;99730.11;108710;1266;37064;-76
2023/03/05 07:52:00;;;;;;;13.80;6.30;;;;;;;2.00;60.68;99729.96;108873;1266;37337;-77
2023/03/05 07:54:36;;;;;;;14.30;6.70;;;;;;;1.95;60.12;99726.42;108760;1276;36950;-75
2023/03/05 07:57:11;;;;;;;11.30;5.90;;;;;;;1.90;60.33;99724.60;108694;1254;36984;-75
2023/03/05 07:59:45;;;;;;;12.60;6.50;;;;;;;1.89;60.24;99727.88;108715;1267;36975;-76
2023/03/05 08:02:20;;;;;;;15.40;8.10;;;;;;;1.86;60.23;99722.25;108737;1276;36105;-76
2023/03/05 08:04:57;;;;;;;15.00;6.80;;;;;;;1.85;60.50;99723.63;108712;1276;38802;-76
2023/03/05 08:07:31;;;;;;;12.40;6.80;;;;;;;1.83;60.32;99722.80;108733;1266;36575;-75
2023/03/05 08:10:06;;;;;;;11.90;6.70;;;;;;;1.78;60.30;99721.82;108734;1276;37377;-75
2023/03/05 08:12:40;;;;;;;12.50;6.50;;;;;;;1.74;60.35;99720.84;108698;1276;37228;-75
2023/03/05 08:15:16;;;;;;;11.90;6.70;;;;;;;1.71;60.27;99719.35;108525;1276;37265;-77
2023/03/05 08:17:50;;;;;;;11.80;6.70;;;;;;;1.64;60.24;99718.73;108716;1257;36539;-76
2023/03/05 08:20:25;;;;;;;13.70;7.30;;;;;;;1.57;60.29;99718.48;108699;1276;36967;-74
2023/03/05 08:23:00;;;;;;;11.90;6.70;;;;;;;1.52;60.38;99720.59;108474;1266;37054;-76
2023/03/05 08:25:35;;;;;;;13.20;6.90;;;;;;;1.50;60.68;99715.13;108703;1276;36979;-76
2023/03/05 08:28:09;;;;;;;14.30;7.60;;;;;;;1.48;60.83;99717.73;108687;1276;38173;-77
2023/03/05 08:30:45;;;;;;;12.30;7.00;;;;;;;1.44;60.63;99718.11;108730;1276;37939;-76
2023/03/05 08:33:19;;;;;;;13.60;7.30;;;;;;;1.38;60.96;99721.97;108495;1261;37425;-76
2023/03/05 08:35:54;;;;;;;13.10;7.20;;;;;;;1.33;60.46;99718.94;108467;1265;39341;-76
2023/03/05 08:38:28;;;;;;;12.80;7.00;;;;;;;1.26;60.80;99715.23;107820;1259;913822;-76
2023/03/05 08:41:03;;;;;;;14.30;7.90;;;;;;;1.23;60.98;99715.59;108051;1255;916390;-76
2023/03/05 08:43:38;;;;;;;17.80;8.20;;;;;;;1.23;61.18;99720.40;108692;1262;37233;-75
2023/03/05 08:46:13;;;;;;;18.30;7.60;;;;;;;1.22;61.27;99720.25;108780;1276;37345;-76
2023/03/05 08:48:47;;;;;;;15.20;7.80;;;;;;;1.19;60.74;99717.52;108622;1263;36131;-75
2023/03/05 08:51:53;;;;;;;14.60;8.50;;;;;;;1.15;60.85;99716.20;108709;1256;36283;-74
2023/03/05 08:54:30;;;;;;;15.20;8.80;;;;;;;1.10;60.70;99715.73;107906;1260;913639;-75
2023/03/05 08:57:04;;;;;;;17.70;8.60;;;;;;;1.10;61.17;99720.20;108491;1257;37051;-75
2023/03/05 08:59:41;;;;;;;17.60;9.30;;;;;;;1.11;61.24;99718.98;108335;1266;37335;-75
2023/03/05 09:02:19;;;;;;;17.00;9.10;;;;;;;1.13;61.37;99716.39;108539;1270;37885;-76
2023/03/05 09:04:53;;;;;;;15.20;8.80;;;;;;;1.13;61.11;99715.71;108068;1266;911697;-75
2023/03/05 09:07:28;;;;;;;14.00;8.50;;;;;;;1.10;61.25;99710.40;108716;1256;37918;-75
2023/03/05 09:10:02;;;;;;;16.50;9.00;;;;;;;1.10;61.03;99715.91;108722;1276;37295;-77
2023/03/05 09:12:37;;;;;;;17.00;8.90;;;;;;;1.08;61.31;99712.33;108620;1276;37133;-77
2023/03/05 09:15:13;;;;;;;17.40;9.30;;;;;;;1.09;61.56;99710.77;108574;1259;37468;-75
2023/03/05 09:17:47;;;;;;;20.00;9.80;;;;;;;1.12;61.40;99714.00;108643;1259;36959;-74
2023/03/05 09:20:21;;;;;;;19.50;10.20;;;;;;;1.14;61.71;99708.30;108674;1276;37075;-75
2023/03/05 09:22:56;;;;;;;16.90;9.10;;;;;;;1.17;61.81;99709.13;108500;1266;36256;-75
2023/03/05 09:25:36;;;;;;;16.60;8.90;;;;;;;1.18;61.53;99705.35;108743;1253;37282;-77
2023/03/05 09:28:11;;;;;;;17.60;9.60;;;;;;;1.19;61.64;99712.21;108623;1276;38322;-76
2023/03/05 09:30:45;;;;;;;18.60;9.50;;;;;;;1.22;61.91;99712.52;108562;1269;36809;-78
2023/03/05 09:33:20;;;;;;;14.50;9.00;;;;;;;1.25;61.68;99712.84;108721;1276;36826;-76
2023/03/05 09:35:57;;;;;;;14.10;8.20;;;;;;;1.27;61.48;99710.73;108565;1258;36334;-76
2023/03/05 09:38:32;;;;;;;13.00;7.60;;;;;;;1.27;61.45;99708.84;108711;1276;36993;-76
2023/03/05 09:41:14;;;;;;;17.80;8.30;;;;;;;1.27;61.03;99711.77;108509;1276;39355;-75
2023/03/05 09:48:11;;;;;;;16.50;7.60;;;;;;;1.34;61.49;99708.44;110499;1274;37040;-76
2023/03/05 09:50:49;;;;;;;16.40;8.90;;;;;;;1.37;61.42;99707.70;110497;1274;36160;-76
2023/03/05 09:53:35;;;;;;;15.00;8.50;;;;;;;1.41;61.30;99703.71;110556;1274;37053;-77
2023/03/05 09:56:14;;;;;;;17.20;8.20;;;;;;;1.45;61.57;99701.27;110540;1266;37129;-77
2023/03/05 09:58:49;;;;;;;16.90;9.40;;;;;;;1.50;61.34;99697.76;110507;1275;38042;-76
2023/03/05 10:01:28;;;;;;;17.10;9.30;;;;;;;1.53;61.09;99697.73;110515;1270;38981;-76
2023/03/05 10:04:04;;;;;;;18.40;10.30;;;;;;;1.58;61.45;99700.59;110516;1263;37149;-77
2023/03/05 10:06:43;;;;;;;18.10;9.30;;;;;;;1.61;61.41;99700.20;110530;1274;37030;-78
2023/03/05 10:09:21;;;;;;;17.30;9.40;;;;;;;1.66;61.55;99701.19;110402;1274;174535;-75
2023/03/05 10:11:58;;;;;;;16.80;9.80;;;;;;;1.71;61.75;99699.39;110520;1263;37509;-76
2023/03/05 10:14:34;;;;;;;18.40;9.40;;;;;;;1.77;61.75;99697.94;110547;1263;36085;-76
2023/03/05 10:17:44;;;;;;;15.80;8.90;;;;;;;1.81;61.45;99694.27;110551;1274;38293;-76
2023/03/05 10:20:58;;;;;;;18.00;9.00;;;;;;;1.88;61.41;99694.02;110403;1260;174589;-78
2023/03/05 10:23:51;;;;;;;15.40;9.20;;;;;;;1.90;61.32;99689.85;110405;1274;36984;-81
2023/03/05 10:26:38;;;;;;;16.70;9.40;;;;;;;1.95;61.41;99688.41;110466;1255;187953;-80
2023/03/05 10:29:29;;;;;;;19.50;10.50;;;;;;;1.99;61.30;99686.30;110511;1262;35940;-77
2023/03/05 10:32:11;;;;;;;17.00;10.00;;;;;;;2.00;61.12;99683.52;110585;1260;37591;-78
2023/03/05 10:35:32;;;;;;;18.60;10.80;;;;;;;2.01;60.98;99685.57;110570;1274;37145;-78
2023/03/05 10:38:40;;;;;;;22.00;11.30;;;;;;;2.02;61.32;99678.16;110474;1275;37580;-78
2023/03/05 10:41:24;;;;;;;18.40;10.70;;;;;;;2.02;61.23;99679.19;110470;1274;37074;-77
2023/03/05 10:44:01;;;;;;;17.80;9.30;;;;;;;2.04;61.16;99675.05;110511;1274;36726;-77
2023/03/05 10:46:42;;;;;;;14.70;9.20;;;;;;;2.06;60.77;99671.73;110532;1263;37028;-76
2023/03/05 10:49:19;;;;;;;18.70;10.10;;;;;;;2.03;60.45;99672.65;110492;1263;36140;-77
2023/03/05 10:51:57;;;;;;;16.40;9.10;;;;;;;2.00;60.72;99665.47;110513;1263;36992;-77
2023/03/05 10:54:41;;;;;;;16.00;8.90;;;;;;;2.00;60.69;99663.05;110546;1274;37424;-77
2023/03/05 10:57:23;;;;;;;19.10;10.30;;;;;;;1.97;60.58;99660.69;110524;1267;37166;-77
2023/03/05 11:00:01;;;;;;;14.40;8.10;;;;;;;1.91;60.70;99657.86;110508;1266;36165;-77
2023/03/05 11:02:35;;;;;;;13.30;5.80;;;;;;;1.89;60.61;99654.26;110555;1274;36996;-77
2023/03/05 11:05:28;;;;;;;11.20;6.10;;;;;;;1.89;60.45;99654.27;110457;1274;37049;-77
2023/03/05 11:08:03;;;;;;;10.80;5.30;;;;;;;1.87;60.66;99651.89;110473;1275;36966;-76
2023/03/05 11:10:37;;;;;;;9.20;4.90;;;;;;;1.87;61.02;99652.06;110492;1274;36794;-76
2023/03/05 11:13:26;;;;;;;8.40;4.40;;;;;;;1.87;60.82;99650.69;110487;1275;36750;-77
2023/03/05 11:16:03;;;;;;;;;;;;;;;1.84;60.55;99651.41;110499;1274;37049;-77
2023/03/05 11:18:37;;;;;;;5.60;3.60;;;;;;;1.77;60.67;99653.24;110445;1270;37505;-76
2023/03/05 11:21:18;;;;;;;7.70;4.20;;;;;;;1.79;61.05;99648.91;110439;1263;37086;-76
2023/03/05 11:24:12;;;;;;;9.50;5.20;;;;;;;1.82;61.16;99641.13;110526;1263;37061;-77
2023/03/05 11:26:52;;;;;;;7.80;3.70;;;;;;;1.85;61.25;99642.45;110468;1274;37270;-77
2023/03/05 11:29:29;;;;;;;8.20;3.80;;;;;;;1.87;61.26;99639.86;110395;1274;37100;-79
2023/03/05 11:32:21;;;;;;;8.00;3.80;;;;;;;1.87;61.45;99635.72;110454;1274;37259;-77
2023/03/05 11:34:55;;;;;;;8.20;4.40;;;;;;;1.85;61.71;99634.54;110939;1257;38221;-77
2023/03/05 11:37:31;;;;;;;7.60;4.20;;;;;;;1.84;61.71;99631.46;110489;1274;37130;-77
2023/03/05 11:40:29;;;;;;;8.40;3.90;;;;;;;1.82;61.99;99626.33;110488;1251;37519;-76
2023/03/05 11:43:05;;;;;;;7.20;4.10;;;;;;;1.80;62.22;99623.45;110521;1251;36969;-76
2023/03/05 11:45:40;;;;;;;8.00;4.30;;;;;;;1.78;62.65;99620.20;110439;1274;37925;-76
2023/03/05 11:48:18;;;;;;;6.80;4.00;;;;;;;1.83;63.06;99614.82;110417;1276;36967;-77
2023/03/05 11:50:54;;;;;;;11.70;6.10;;;;;;;1.85;63.19;99611.16;110394;1276;37831;-77
2023/03/05 11:53:29;;;;;;;11.90;6.40;;;;;;;1.85;63.39;99609.27;110374;1276;37270;-76
2023/03/05 11:56:07;;;;;;;11.40;6.50;;;;;;;1.84;63.80;99605.67;110395;1276;37312;-76
2023/03/05 11:58:45;;;;;;;15.00;7.60;;;;;;;1.84;64.10;99603.79;110365;1276;36435;-76
2023/03/05 12:01:21;;;;;;;13.60;7.60;;;;;;;1.86;64.33;99604.95;110364;1276;38674;-76
2023/03/05 12:03:55;;;;;;;16.40;8.90;;;;;;;1.88;64.40;99599.43;110391;1273;37008;-76
2023/03/05 12:06:39;;;;;;;15.70;8.40;;;;;;;1.85;64.43;99597.92;109692;1260;913422;-76